Time;durP1;ratioP1;P1;durP2;ratioP2;P2;SDS_P1;SDS_P2;PMS_P1;PMS_P2;Temp;Humidity;BMP_temperature;BMP_pressure;BME280_temperature;BME280_humidity;BME280_pressure;Samples;Min_cycle;Max_cycle;Signal;HPM_P1;HPM_P2
2023/12/17 00:02:13;;;;;;;;;;;;;;;12.85;98.24;103327.88;7291246;19;19930;-68
2023/12/17 00:04:40;;;;;;;;;;;;;;;12.88;98.08;103334.78;7294538;19;20739;-69
2023/12/17 00:07:08;;;;;;;;;;;;;;;12.87;98.03;103333.91;7292811;19;20220;-69
2023/12/17 00:09:34;;;;;;;;;;;;;;;12.82;98.47;103330.75;7287567;19;19931;-70
2023/12/17 00:12:02;;;;;;;;;;;;;;;12.86;98.55;103321.66;7281001;19;19949;-69
2023/12/17 00:14:29;;;;;;;;;;;;;;;12.88;98.90;103327.69;7290551;19;21000;-68
2023/12/17 00:16:56;;;;;;;;;;;;;;;12.85;98.75;103315.53;7288775;19;19937;-69
2023/12/17 00:19:25;;;;;;;;;;;;;;;12.88;98.67;103316.28;7285348;19;20265;-69
2023/12/17 00:21:53;;;;;;;;;;;;;;;12.89;99.05;103299.47;7285102;19;19976;-69
2023/12/17 00:24:20;;;;;;;;;;;;;;;12.85;99.28;103306.75;7282516;19;22023;-68
2023/12/17 00:26:47;;;;;;;;;;;;;;;12.80;98.81;103304.41;7285999;19;20358;-69
2023/12/17 00:29:14;;;;;;;;;;;;;;;12.79;99.15;103293.97;7296179;19;20824;-70
2023/12/17 00:31:41;;;;;;;;;;;;;;;12.74;99.27;103293.47;7272846;19;19923;-70
2023/12/17 00:34:07;;;;;;;;;;;;;;;12.74;99.52;103293.47;7283599;19;20269;-68
2023/12/17 00:36:35;;;;;;;;;;;;;;;12.77;99.91;103296.72;7284205;19;19929;-69
2023/12/17 00:39:02;;;;;;;;;;;;;;;12.77;99.93;103291.44;7274824;19;19945;-70
2023/12/17 00:41:31;;;;;;;;;;;;;;;12.77;99.54;103294.09;7285425;19;21097;-70
2023/12/17 00:43:58;;;;;;;;;;;;;;;12.76;98.90;103284.47;7281048;19;19918;-70
2023/12/17 00:46:25;;;;;;;;;;;;;;;12.78;98.23;103277.28;7288253;19;19918;-69
2023/12/17 00:48:52;;;;;;;;;;;;;;;12.78;98.33;103277.28;7296518;19;19919;-69
2023/12/17 00:51:19;;;;;;;;;;;;;;;12.80;98.14;103269.22;7287748;19;19957;-69
2023/12/17 00:53:46;;;;;;;;;;;;;;;12.81;97.58;103281.50;7298032;19;19921;-69
2023/12/17 00:56:13;;;;;;;;;;;;;;;12.84;97.20;103278.66;7309728;19;20621;-69
2023/12/17 00:58:40;;;;;;;;;;;;;;;12.79;96.56;103276.34;7281187;19;19923;-70
2023/12/17 01:01:07;;;;;;;;;;;;;;;12.76;96.51;103278.31;7281431;19;20384;-69
2023/12/17 01:03:35;;;;;;;;;;;;;;;12.78;97.00;103276.44;7285290;19;19927;-71
2023/12/17 01:06:02;;;;;;;;;;;;;;;12.77;96.75;103278.22;7280093;19;19915;-70
2023/12/17 01:08:29;;;;;;;;;;;;;;;12.76;96.63;103273.03;7285200;19;20598;-70
2023/12/17 01:10:56;;;;;;;;;;;;;;;12.80;96.67;103271.88;7277581;19;19914;-69
2023/12/17 01:13:23;;;;;;;;;;;;;;;12.77;96.17;103278.22;7280975;19;20474;-69
2023/12/17 01:15:53;;;;;;;;;;;;;;;12.69;96.41;103267.38;7280488;19;20422;-68
2023/12/17 01:18:22;;;;;;;;;;;;;;;12.58;96.10;103267.25;7287455;19;19919;-69
2023/12/17 01:20:51;;;;;;;;;;;;;;;12.63;96.26;103270.41;7277231;19;19942;-68
2023/12/17 01:23:18;;;;;;;;;;;;;;;12.62;95.79;103262.59;7288629;19;19918;-69
2023/12/17 01:25:45;;;;;;;;;;;;;;;12.57;96.13;103267.34;7292140;19;19923;-69
2023/12/17 01:28:12;;;;;;;;;;;;;;;12.62;96.41;103267.88;7287588;19;20603;-69
2023/12/17 01:30:40;;;;;;;;;;;;;;;12.63;95.98;103266.94;7297170;19;20326;-68
2023/12/17 01:33:08;;;;;;;;;;;;;;;12.65;95.26;103267.66;7288116;19;19919;-70
2023/12/17 01:35:35;;;;;;;;;;;;;;;12.65;94.28;103265.84;7286304;19;19926;-69
2023/12/17 01:38:02;;;;;;;;;;;;;;;12.66;94.12;103269.34;7279379;19;20362;-69
2023/12/17 01:40:30;;;;;;;;;;;;;;;12.61;94.55;103267.03;7282074;19;19929;-69
2023/12/17 01:43:01;;;;;;;;;;;;;;;12.59;94.30;103249.59;7278194;19;19955;-69
2023/12/17 01:45:28;;;;;;;;;;;;;;;12.61;93.96;103251.19;7279601;19;20194;-69
2023/12/17 01:47:55;;;;;;;;;;;;;;;12.62;94.17;103252.03;7289796;19;19934;-69
2023/12/17 01:50:26;;;;;;;;;;;;;;;12.62;94.27;103249.38;7301142;19;19942;-68
2023/12/17 01:52:53;;;;;;;;;;;;;;;12.60;94.20;103257.41;7283786;19;22400;-69
2023/12/17 01:55:23;;;;;;;;;;;;;;;12.57;93.98;103254.13;7283571;19;19960;-69
2023/12/17 01:57:52;;;;;;;;;;;;;;;12.55;94.12;103243.66;7298028;19;19915;-70
2023/12/17 02:00:19;;;;;;;;;;;;;;;12.57;94.22;103240.94;7288535;19;20830;-69
2023/12/17 02:02:47;;;;;;;;;;;;;;;12.60;95.34;103238.06;7295307;19;19915;-69
2023/12/17 02:05:14;;;;;;;;;;;;;;;12.64;95.61;103234.28;7274199;19;20751;-69
2023/12/17 02:07:41;;;;;;;;;;;;;;;12.62;95.35;103238.81;7293416;19;19922;-69
2023/12/17 02:10:08;;;;;;;;;;;;;;;12.65;94.90;103235.94;7293410;19;21263;-69
2023/12/17 02:12:35;;;;;;;;;;;;;;;12.61;95.03;103237.13;7288840;19;19927;-69
2023/12/17 02:15:05;;;;;;;;;;;;;;;12.60;95.38;103231.00;7291342;19;20211;-70
2023/12/17 02:17:32;;;;;;;;;;;;;;;12.62;94.85;103234.38;7282612;19;19918;-68
2023/12/17 02:19:59;;;;;;;;;;;;;;;12.58;94.86;103238.19;7289913;19;19918;-68
2023/12/17 02:22:26;;;;;;;;;;;;;;;12.55;94.98;103229.63;7293511;19;20014;-69
2023/12/17 02:24:53;;;;;;;;;;;;;;;12.52;95.64;103229.84;7287871;19;20300;-68
2023/12/17 02:27:21;;;;;;;;;;;;;;;12.52;96.01;103238.63;7293179;19;19930;-69
2023/12/17 02:29:49;;;;;;;;;;;;;;;12.49;95.47;103230.91;7291442;19;19921;-69
2023/12/17 02:32:17;;;;;;;;;;;;;;;12.43;95.30;103233.97;7286259;19;20002;-68
2023/12/17 02:34:44;;;;;;;;;;;;;;;12.44;95.58;103235.66;7299958;19;19935;-69
2023/12/17 02:37:11;;;;;;;;;;;;;;;12.47;95.77;103230.16;7291886;19;19963;-69
2023/12/17 02:39:37;;;;;;;;;;;;;;;12.52;95.35;103224.56;7305523;19;19931;-68
2023/12/17 02:42:04;;;;;;;;;;;;;;;12.52;95.48;103212.19;7296732;19;19921;-70
2023/12/17 02:44:32;;;;;;;;;;;;;;;12.50;95.03;103214.09;7297892;19;19986;-68
2023/12/17 02:46:59;;;;;;;;;;;;;;;12.52;95.39;103220.13;7300687;19;20441;-69
2023/12/17 02:49:27;;;;;;;;;;;;;;;12.50;95.48;103221.16;7300015;19;20970;-70
2023/12/17 02:51:56;;;;;;;;;;;;;;;12.46;95.65;103214.41;7298343;19;19962;-68
2023/12/17 02:54:26;;;;;;;;;;;;;;;12.45;94.87;103213.56;7302369;19;19931;-69
2023/12/17 02:56:53;;;;;;;;;;;;;;;12.45;94.88;103203.00;7299926;19;19994;-69
2023/12/17 02:59:20;;;;;;;;;;;;;;;12.47;94.30;103195.84;7296713;19;20564;-69
2023/12/17 03:01:47;;;;;;;;;;;;;;;12.49;94.87;103199.22;7294778;19;19918;-68
2023/12/17 03:04:14;;;;;;;;;;;;;;;12.51;94.81;103199.09;7296251;19;19972;-69
2023/12/17 03:06:41;;;;;;;;;;;;;;;12.49;94.31;103188.66;7305414;19;20011;-68
2023/12/17 03:09:08;;;;;;;;;;;;;;;12.49;93.90;103195.75;7296912;19;19985;-68
2023/12/17 03:11:35;;;;;;;;;;;;;;;12.47;93.67;103190.56;7287312;19;20697;-69
2023/12/17 03:14:04;;;;;;;;;;;;;;;12.48;94.65;103192.25;7301907;19;19918;-68
2023/12/17 03:16:31;;;;;;;;;;;;;;;12.46;94.85;103186.22;7301822;19;19927;-69
2023/12/17 03:18:58;;;;;;;;;;;;;;;12.41;94.25;103183.91;7290248;19;20489;-69
2023/12/17 03:23:55;;;;;;;;;;;;;;;12.35;94.47;103171.13;7294912;19;20697;-68
2023/12/17 03:26:24;;;;;;;;;;;;;;;12.36;94.80;103167.53;7283578;19;20719;-70
2023/12/17 03:28:51;;;;;;;;;;;;;;;12.39;95.02;103163.84;7289717;19;20198;-68
2023/12/17 03:31:18;;;;;;;;;;;;;;;12.39;93.92;103164.66;7288345;19;19919;-69
2023/12/17 03:33:45;;;;;;;;;;;;;;;12.40;93.89;103165.50;7292394;19;19915;-69
2023/12/17 03:36:13;;;;;;;;;;;;;;;12.39;93.70;103148.81;7287849;19;20327;-68
2023/12/17 03:38:43;;;;;;;;;;;;;;;12.40;94.41;103149.66;7287904;19;19933;-69
2023/12/17 03:41:13;;;;;;;;;;;;;;;12.42;94.05;103142.50;7299249;19;20276;-70
2023/12/17 03:43:40;;;;;;;;;;;;;;;12.43;93.36;103142.41;7289090;19;19926;-69
2023/12/17 03:46:06;;;;;;;;;;;;;;;12.37;92.85;103134.06;7307349;19;19910;-68
2023/12/17 03:48:35;;;;;;;;;;;;;;;12.36;93.65;103132.38;7287797;19;20447;-69
2023/12/17 03:51:04;;;;;;;;;;;;;;;12.35;94.48;103128.88;7292571;19;20324;-70
2023/12/17 03:53:31;;;;;;;;;;;;;;;12.36;93.27;103135.84;7284568;19;19931;-68
2023/12/17 03:55:58;;;;;;;;;;;;;;;12.31;92.57;103143.25;7283640;19;21513;-69
2023/12/17 03:58:27;;;;;;;;;;;;;;;12.25;92.49;103140.19;7304891;19;20287;-69
2023/12/17 04:00:54;;;;;;;;;;;;;;;12.20;92.74;103140.50;7296608;19;20427;-68
2023/12/17 04:03:21;;;;;;;;;;;;;;;12.22;93.21;103135.97;7286625;19;20378;-69
2023/12/17 04:05:48;;;;;;;;;;;;;;;12.23;92.98;103121.84;7297417;19;19915;-70
2023/12/17 04:08:14;;;;;;;;;;;;;;;12.27;92.93;103123.31;7317095;19;19943;-69
2023/12/17 04:10:41;;;;;;;;;;;;;;;12.29;92.39;103120.56;7312229;19;20354;-70
2023/12/17 04:13:10;;;;;;;;;;;;;;;12.32;92.87;103115.91;7298945;19;20501;-69
2023/12/17 04:15:37;;;;;;;;;;;;;;;12.32;92.59;103105.34;7307991;19;20014;-68
2023/12/17 04:18:04;;;;;;;;;;;;;;;12.33;92.27;103107.03;7291781;19;20433;-69
2023/12/17 04:20:31;;;;;;;;;;;;;;;12.33;91.77;103100.91;7287448;19;19955;-69
2023/12/17 04:22:58;;;;;;;;;;;;;;;12.30;91.12;103101.97;7284497;19;19925;-69
2023/12/17 04:25:25;;;;;;;;;;;;;;;12.28;91.15;103106.50;7289226;19;20034;-69
2023/12/17 04:27:52;;;;;;;;;;;;;;;12.25;91.26;103104.06;7290173;19;20513;-68
2023/12/17 04:30:19;;;;;;;;;;;;;;;12.24;91.22;103102.38;7286917;19;20011;-69
2023/12/17 04:32:48;;;;;;;;;;;;;;;12.24;90.67;103094.47;7299754;19;20226;-69
2023/12/17 04:35:18;;;;;;;;;;;;;;;12.21;90.76;103101.75;7292736;19;19922;-69
2023/12/17 04:37:45;;;;;;;;;;;;;;;12.20;91.37;103097.44;7287882;19;19926;-70
2023/12/17 04:40:14;;;;;;;;;;;;;;;12.24;91.22;103096.28;7294210;19;19919;-70
2023/12/17 04:42:41;;;;;;;;;;;;;;;12.26;90.50;103089.09;7285965;19;20997;-69
2023/12/17 04:45:08;;;;;;;;;;;;;;;12.27;90.57;103090.78;7294325;19;19915;-69
2023/12/17 04:47:35;;;;;;;;;;;;;;;12.17;89.90;103093.22;7288979;19;20513;-70
2023/12/17 04:50:02;;;;;;;;;;;;;;;12.16;90.53;103082.75;7276540;19;20192;-70
2023/12/17 04:52:29;;;;;;;;;;;;;;;12.19;90.40;103085.19;7289990;19;20293;-69
2023/12/17 04:55:00;;;;;;;;;;;;;;;12.18;90.29;103076.44;7293601;19;21296;-70
2023/12/17 04:57:26;;;;;;;;;;;;;;;12.22;90.05;103071.78;7287400;19;20107;-69
2023/12/17 04:59:53;;;;;;;;;;;;;;;12.22;89.43;103064.72;7292568;19;19951;-68
2023/12/17 05:02:20;;;;;;;;;;;;;;;12.18;89.27;103076.44;7286964;19;19914;-69
2023/12/17 05:04:47;;;;;;;;;;;;;;;12.18;89.63;103070.31;7300565;19;19919;-69
2023/12/17 05:07:16;;;;;;;;;;;;;;;12.15;89.62;103066.06;7292823;19;19955;-68
2023/12/17 05:09:43;;;;;;;;;;;;;;;12.19;90.12;103066.72;7294358;19;20435;-68
2023/12/17 05:12:10;;;;;;;;;;;;;;;12.22;89.91;103069.13;7284776;19;21815;-70
2023/12/17 05:14:37;;;;;;;;;;;;;;;12.23;89.78;103063.75;7295132;19;19938;-70
2023/12/17 05:17:04;;;;;;;;;;;;;;;12.22;89.93;103062.06;7279628;19;19915;-70
2023/12/17 05:19:31;;;;;;;;;;;;;;;12.22;90.11;103054.16;7289296;19;19983;-69
2023/12/17 05:21:58;;;;;;;;;;;;;;;12.21;89.82;103051.59;7282961;19;20661;-70
2023/12/17 05:24:25;;;;;;;;;;;;;;;12.20;89.44;103053.41;7287711;19;19929;-68
2023/12/17 05:26:52;;;;;;;;;;;;;;;12.15;89.16;103047.59;7284923;19;19929;-69
2023/12/17 05:29:19;;;;;;;;;;;;;;;12.15;90.78;103054.69;7286524;19;20307;-69
2023/12/17 05:31:46;;;;;;;;;;;;;;;12.14;90.80;103053.81;7281264;19;19982;-69
2023/12/17 05:34:13;;;;;;;;;;;;;;;12.13;90.63;103049.53;7287326;19;19926;-69
2023/12/17 05:36:40;;;;;;;;;;;;;;;12.12;89.96;103058.38;7288412;19;20009;-69
2023/12/17 05:39:07;;;;;;;;;;;;;;;12.08;89.72;103050.78;7289017;19;20402;-68
2023/12/17 05:41:34;;;;;;;;;;;;;;;12.07;90.63;103043.81;7286957;19;19918;-69
2023/12/17 05:44:03;;;;;;;;;;;;;;;12.09;91.25;103050.66;7289205;19;19942;-69
2023/12/17 05:46:32;;;;;;;;;;;;;;;12.09;90.36;103049.84;7291332;19;20137;-69
2023/12/17 05:49:01;;;;;;;;;;;;;;;12.07;90.25;103057.03;7302220;19;19915;-70
2023/12/17 05:51:28;;;;;;;;;;;;;;;12.05;90.24;103056.28;7300269;19;19919;-70
2023/12/17 05:53:55;;;;;;;;;;;;;;;12.02;90.08;103057.34;7304545;19;19932;-70
2023/12/17 05:56:22;;;;;;;;;;;;;;;12.03;91.19;103060.84;7294057;19;20295;-70
2023/12/17 06:01:18;;;;;;;;;;;;;;;12.05;90.22;103057.13;7285301;19;19922;-70
2023/12/17 06:03:44;;;;;;;;;;;;;;;12.02;90.29;103064.41;7303301;19;19999;-70
2023/12/17 06:06:11;;;;;;;;;;;;;;;12.04;90.27;103062.53;7288490;19;19972;-69
2023/12/17 06:08:38;;;;;;;;;;;;;;;12.05;90.06;103069.47;7293092;19;19927;-70
2023/12/17 06:11:07;;;;;;;;;;;;;;;12.03;90.57;103066.94;7295894;19;20029;-69
2023/12/17 06:13:35;;;;;;;;;;;;;;;12.04;90.69;103060.69;7291316;19;19927;-70
2023/12/17 06:16:03;;;;;;;;;;;;;;;12.02;90.27;103059.13;7305049;19;19915;-70
2023/12/17 06:18:30;;;;;;;;;;;;;;;12.00;90.10;103056.59;7294319;19;20002;-68
2023/12/17 06:20:57;;;;;;;;;;;;;;;12.01;90.07;103053.00;7285383;19;20319;-69
2023/12/17 06:23:25;;;;;;;;;;;;;;;12.03;90.31;103058.19;7289592;19;19919;-70
2023/12/17 06:25:52;;;;;;;;;;;;;;;12.02;90.50;103045.94;7278740;19;19951;-68
2023/12/17 06:28:21;;;;;;;;;;;;;;;12.03;90.55;103052.91;7279632;19;19915;-68
2023/12/17 06:30:47;;;;;;;;;;;;;;;12.02;89.46;103056.50;7311768;19;20552;-70
2023/12/17 06:33:14;;;;;;;;;;;;;;;12.00;89.50;103059.22;7314150;19;20593;-68
2023/12/17 06:35:42;;;;;;;;;;;;;;;11.91;89.44;103063.38;7298205;19;20249;-69
2023/12/17 06:38:09;;;;;;;;;;;;;;;11.91;90.12;103057.25;7292712;19;19919;-68
2023/12/17 06:40:36;;;;;;;;;;;;;;;11.91;89.83;103049.31;7297570;19;19923;-68
2023/12/17 06:43:03;;;;;;;;;;;;;;;11.88;90.26;103047.75;7290975;19;19915;-71
2023/12/17 06:45:30;;;;;;;;;;;;;;;11.81;89.22;103046.47;7285858;19;20189;-68
2023/12/17 06:47:57;;;;;;;;;;;;;;;11.85;90.08;103037.41;7296282;19;22280;-70
2023/12/17 06:50:24;;;;;;;;;;;;;;;11.86;90.36;103039.09;7297033;19;20948;-70
2023/12/17 06:52:51;;;;;;;;;;;;;;;11.85;90.17;103036.56;7307123;19;20523;-70
2023/12/17 06:55:18;;;;;;;;;;;;;;;11.86;90.24;103033.81;7289015;19;19923;-68
2023/12/17 06:57:47;;;;;;;;;;;;;;;11.83;89.87;103038.47;7289384;19;20441;-69
2023/12/17 07:00:14;;;;;;;;;;;;;;;11.85;90.11;103031.28;7290970;19;19937;-69
2023/12/17 07:02:42;;;;;;;;;;;;;;;11.85;90.52;103029.47;7285253;19;19933;-69
2023/12/17 07:05:09;;;;;;;;;;;;;;;11.86;90.17;103033.81;7287243;19;22240;-68
2023/12/17 07:07:36;;;;;;;;;;;;;;;11.85;89.62;103029.47;7309461;19;19930;-70
2023/12/17 07:10:04;;;;;;;;;;;;;;;11.84;89.72;103033.06;7283157;19;20315;-69
2023/12/17 07:12:31;;;;;;;;;;;;;;;11.85;90.14;103024.22;7296714;19;20253;-68
2023/12/17 07:14:58;;;;;;;;;;;;;;;11.85;89.63;103029.47;7292053;19;19937;-70
2023/12/17 07:17:25;;;;;;;;;;;;;;;11.84;89.23;103032.22;7291052;19;20897;-70
2023/12/17 07:19:52;;;;;;;;;;;;;;;11.82;89.10;103031.50;7283387;19;19944;-69
2023/12/17 07:22:22;;;;;;;;;;;;;;;11.84;89.64;103027.78;7294653;19;20667;-69
2023/12/17 07:24:49;;;;;;;;;;;;;;;11.79;89.71;103034.34;7296897;19;20459;-70
2023/12/17 07:27:17;;;;;;;;;;;;;;;11.79;88.93;103040.47;7281313;19;21863;-70
2023/12/17 07:29:44;;;;;;;;;;;;;;;11.79;89.03;103034.34;7299404;19;19911;-68
2023/12/17 07:32:11;;;;;;;;;;;;;;;11.77;89.26;103029.19;7284530;19;19931;-70
2023/12/17 07:34:40;;;;;;;;;;;;;;;11.82;89.40;103032.34;7286101;19;19940;-70
2023/12/17 07:37:07;;;;;;;;;;;;;;;11.88;91.01;103026.66;7291899;19;19915;-70
2023/12/17 07:39:34;;;;;;;;;;;;;;;11.92;89.92;103032.56;7294511;19;20139;-69
2023/12/17 07:42:01;;;;;;;;;;;;;;;11.88;88.95;103029.28;7296103;19;22157;-69
2023/12/17 07:44:30;;;;;;;;;;;;;;;11.87;89.17;103030.22;7281669;19;19947;-68
2023/12/17 07:46:57;;;;;;;;;;;;;;;11.89;89.78;103028.31;7303229;19;19998;-68
2023/12/17 07:49:23;;;;;;;;;;;;;;;11.91;90.53;103036.97;7286919;19;19918;-69
2023/12/17 07:51:52;;;;;;;;;;;;;;;11.94;90.10;103039.38;7289990;19;19938;-70
2023/12/17 07:54:19;;;;;;;;;;;;;;;11.93;89.27;103036.88;7277108;19;20017;-70
2023/12/17 07:56:46;;;;;;;;;;;;;;;11.93;89.36;103031.59;7286651;19;19918;-70
2023/12/17 07:59:13;;;;;;;;;;;;;;;11.93;89.55;103034.25;7296929;19;20147;-72
2023/12/17 08:01:40;;;;;;;;;;;;;;;11.93;89.94;103037.72;7284515;19;19921;-69
2023/12/17 08:04:09;;;;;;;;;;;;;;;11.91;89.17;103036.13;7303429;19;21021;-69
2023/12/17 08:06:36;;;;;;;;;;;;;;;11.94;89.24;103034.13;7286360;19;20426;-68
2023/12/17 08:09:02;;;;;;;;;;;;;;;11.95;88.28;103032.31;7284379;19;19919;-69
2023/12/17 08:11:29;;;;;;;;;;;;;;;11.94;89.29;103031.47;7292728;19;20537;-70
2023/12/17 08:13:56;;;;;;;;;;;;;;;11.92;88.34;103037.81;7296072;19;19926;-68
2023/12/17 08:16:23;;;;;;;;;;;;;;;11.89;88.36;103038.88;7288880;19;20325;-70
2023/12/17 08:18:50;;;;;;;;;;;;;;;11.90;88.65;103039.72;7292558;19;20509;-70
2023/12/17 08:21:17;;;;;;;;;;;;;;;11.92;88.92;103046.59;7298573;19;20109;-69
2023/12/17 08:23:44;;;;;;;;;;;;;;;11.92;89.16;103043.09;7298835;19;20320;-69
2023/12/17 08:26:11;;;;;;;;;;;;;;;11.95;89.69;103051.63;7286923;19;19919;-69
2023/12/17 08:28:38;;;;;;;;;;;;;;;11.96;88.89;103055.13;7296719;19;20285;-70
2023/12/17 08:31:09;;;;;;;;;;;;;;;11.94;88.70;103055.22;7297697;19;19922;-68
2023/12/17 08:33:36;;;;;;;;;;;;;;;11.94;88.58;103049.94;7295703;19;19982;-69
2023/12/17 08:36:04;;;;;;;;;;;;;;;11.94;88.17;103049.94;7298773;19;19922;-69
2023/12/17 08:38:32;;;;;;;;;;;;;;;11.91;87.61;103051.97;7297619;19;20421;-69
2023/12/17 08:41:00;;;;;;;;;;;;;;;11.96;87.71;103053.34;7279881;19;20293;-69
2023/12/17 08:43:27;;;;;;;;;;;;;;;11.98;88.07;103042.69;7287208;19;20856;-68
2023/12/17 08:45:54;;;;;;;;;;;;;;;11.99;88.38;103047.81;7290911;19;20478;-68
2023/12/17 08:48:21;;;;;;;;;;;;;;;12.00;88.01;103049.53;7281586;19;20685;-70
2023/12/17 08:50:51;;;;;;;;;;;;;;;12.02;87.38;103056.50;7289038;19;20644;-69
2023/12/17 08:53:22;;;;;;;;;;;;;;;12.03;87.50;103051.13;7301439;19;20520;-71
2023/12/17 08:55:50;;;;;;;;;;;;;;;12.04;87.16;103052.78;7292129;19;20023;-72
2023/12/17 08:58:17;;;;;;;;;;;;;;;12.03;87.16;103053.75;7284332;19;19914;-68
2023/12/17 09:00:44;;;;;;;;;;;;;;;12.05;86.95;103062.41;7292359;19;20417;-70
2023/12/17 09:03:11;;;;;;;;;;;;;;;12.02;87.06;103053.84;7291747;19;20319;-69
2023/12/17 09:05:38;;;;;;;;;;;;;;;12.06;87.74;103066.72;7298192;19;20752;-69
2023/12/17 09:08:05;;;;;;;;;;;;;;;12.04;86.94;103052.78;7295672;19;20300;-74
2023/12/17 09:10:32;;;;;;;;;;;;;;;12.05;87.46;103056.28;7300357;19;20384;-69
2023/12/17 09:12:59;;;;;;;;;;;;;;;12.11;87.47;103053.22;7301688;19;20030;-70
2023/12/17 09:15:26;;;;;;;;;;;;;;;12.16;86.61;103059.84;7290774;19;20331;-69
2023/12/17 09:17:53;;;;;;;;;;;;;;;12.17;86.46;103058.06;7297096;19;19930;-68
2023/12/17 09:20:23;;;;;;;;;;;;;;;12.14;85.83;103066.22;7287868;19;20476;-69
2023/12/17 09:22:52;;;;;;;;;;;;;;;12.09;85.91;103068.31;7295830;19;20402;-70
2023/12/17 09:25:19;;;;;;;;;;;;;;;12.10;87.21;103068.19;7294576;19;19934;-73
2023/12/17 09:27:47;;;;;;;;;;;;;;;12.13;86.35;103062.72;7286831;19;19950;-69
2023/12/17 09:30:16;;;;;;;;;;;;;;;12.12;86.38;103074.22;7289490;19;19919;-70
2023/12/17 09:32:44;;;;;;;;;;;;;;;12.16;86.14;103066.94;7278724;19;19958;-70
2023/12/17 09:35:14;;;;;;;;;;;;;;;12.20;87.25;103068.38;7276537;19;19986;-68
2023/12/17 09:37:41;;;;;;;;;;;;;;;12.28;87.46;103069.56;7289575;19;19926;-69
2023/12/17 09:40:08;;;;;;;;;;;;;;;12.31;85.63;103074.59;7289919;19;20799;-69
2023/12/17 09:42:35;;;;;;;;;;;;;;;12.27;85.17;103067.88;7279727;19;19919;-69
2023/12/17 09:45:02;;;;;;;;;;;;;;;12.27;85.71;103069.66;7299937;19;20341;-70
2023/12/17 09:47:30;;;;;;;;;;;;;;;12.25;86.26;103069.75;7297399;19;20003;-68
2023/12/17 09:49:57;;;;;;;;;;;;;;;12.29;86.12;103067.78;7293129;19;19937;-69
2023/12/17 09:52:28;;;;;;;;;;;;;;;12.31;85.44;103063.19;7301984;19;19923;-70
2023/12/17 09:54:55;;;;;;;;;;;;;;;12.36;85.33;103061.09;7292557;19;19930;-69
2023/12/17 09:57:22;;;;;;;;;;;;;;;12.33;84.61;103066.59;7311349;19;20656;-70
2023/12/17 09:59:50;;;;;;;;;;;;;;;12.26;85.55;103066.16;7284020;19;20868;-68
2023/12/17 10:02:17;;;;;;;;;;;;;;;12.31;85.89;103063.19;7288043;19;21683;-69
2023/12/17 10:04:44;;;;;;;;;;;;;;;12.33;85.35;103066.59;7294442;19;20682;-68
2023/12/17 10:07:11;;;;;;;;;;;;;;;12.39;84.98;103071.44;7290230;19;20779;-69
2023/12/17 10:09:39;;;;;;;;;;;;;;;12.47;84.34;103065.59;7292932;19;19985;-70
2023/12/17 10:12:06;;;;;;;;;;;;;;;12.53;84.78;103073.09;7298788;19;19921;-70
2023/12/17 10:14:34;;;;;;;;;;;;;;;12.52;84.66;103069.59;7299334;19;20563;-69
2023/12/17 10:17:04;;;;;;;;;;;;;;;12.50;83.93;103070.66;7294726;19;19919;-69
2023/12/17 10:19:31;;;;;;;;;;;;;;;12.59;84.12;103070.88;7292017;19;19983;-69
2023/12/17 10:22:05;;;;;;;;;;;;;;;12.57;83.85;103069.28;7284853;19;19921;-70
2023/12/17 10:24:35;;;;;;;;;;;;;;;12.54;83.50;103065.06;7286708;19;19967;-73
2023/12/17 10:27:13;;;;;;;;;;;;;;;12.39;83.57;103064.34;7295425;19;19929;-69
2023/12/17 10:29:41;;;;;;;;;;;;;;;12.43;84.88;103060.56;7296502;19;20001;-70
2023/12/17 10:32:10;;;;;;;;;;;;;;;12.47;84.52;103044.47;7305053;19;19934;-68
2023/12/17 10:34:39;;;;;;;;;;;;;;;12.43;83.46;103044.72;7296002;19;20163;-70
2023/12/17 10:37:06;;;;;;;;;;;;;;;12.47;83.97;103040.03;7294326;19;19919;-70
2023/12/17 10:39:35;;;;;;;;;;;;;;;12.44;84.25;103041.09;7298367;19;19962;-68
2023/12/17 10:42:03;;;;;;;;;;;;;;;12.55;84.62;103050.88;7296265;19;20208;-69
2023/12/17 10:44:31;;;;;;;;;;;;;;;12.60;84.35;103030.28;7303346;19;19915;-69
2023/12/17 10:47:03;;;;;;;;;;;;;;;12.63;83.77;103034.50;7287949;19;19929;-69
2023/12/17 10:49:31;;;;;;;;;;;;;;;12.63;82.81;103027.41;7302959;19;21169;-69
2023/12/17 10:52:00;;;;;;;;;;;;;;;12.66;82.80;103039.53;7297921;19;21156;-69
2023/12/17 10:54:27;;;;;;;;;;;;;;;12.68;84.42;103029.72;7289275;19;19921;-68
2023/12/17 10:56:59;;;;;;;;;;;;;;;12.68;83.15;103016.53;7293249;19;19982;-68
2023/12/17 10:59:30;;;;;;;;;;;;;;;12.67;82.97;103010.38;7309589;19;20982;-69
2023/12/17 11:02:07;;;;;;;;;;;;;;;12.68;82.85;103012.09;7297385;19;19922;-70
2023/12/17 11:04:34;;;;;;;;;;;;;;;12.66;82.21;103013.97;7292630;19;20253;-70
2023/12/17 11:07:02;;;;;;;;;;;;;;;12.60;82.33;103013.56;7296346;19;21543;-71
2023/12/17 11:09:30;;;;;;;;;;;;;;;12.67;82.65;103012.19;7283172;19;21370;-70
2023/12/17 11:11:57;;;;;;;;;;;;;;;12.75;83.01;103005.38;7286805;19;20002;-70
2023/12/17 11:14:27;;;;;;;;;;;;;;;12.75;82.10;103002.72;7307323;19;19930;-69
2023/12/17 11:16:54;;;;;;;;;;;;;;;12.89;83.08;102992.97;7291479;19;19922;-68
2023/12/17 11:19:21;;;;;;;;;;;;;;;12.94;82.51;102985.53;7294839;19;20194;-71
2023/12/17 11:21:51;;;;;;;;;;;;;;;12.93;81.48;102992.63;7291148;19;20543;-70
2023/12/17 11:24:19;;;;;;;;;;;;;;;12.92;82.08;102988.28;7296744;19;20212;-70
2023/12/17 11:26:47;;;;;;;;;;;;;;;12.94;82.11;102981.09;7296039;19;20220;-69
2023/12/17 11:29:21;;;;;;;;;;;;;;;12.90;81.90;102976.16;7281155;19;19915;-68
2023/12/17 11:31:49;;;;;;;;;;;;;;;12.97;83.30;102980.84;7287529;19;20345;-69
2023/12/17 11:34:16;;;;;;;;;;;;;;;12.87;81.58;102982.50;7285303;19;19911;-70
2023/12/17 11:36:43;;;;;;;;;;;;;;;12.88;81.91;102976.25;7303406;19;21416;-70
2023/12/17 11:39:11;;;;;;;;;;;;;;;12.88;82.07;102984.19;7307096;19;21798;-69
2023/12/17 11:41:38;;;;;;;;;;;;;;;12.95;82.16;102980.16;7293941;19;19918;-70
2023/12/17 11:44:05;;;;;;;;;;;;;;;12.95;82.66;102972.22;7293492;19;19927;-70
2023/12/17 11:46:33;;;;;;;;;;;;;;;12.97;83.49;102986.13;7296503;19;19918;-69
2023/12/17 11:49:00;;;;;;;;;;;;;;;12.97;82.73;102978.22;7285469;19;21169;-69
2023/12/17 11:51:28;;;;;;;;;;;;;;;12.97;82.40;102980.84;7285496;19;20622;-71
2023/12/17 11:53:58;;;;;;;;;;;;;;;12.93;82.14;102973.28;7306147;19;20570;-68
2023/12/17 11:56:29;;;;;;;;;;;;;;;12.92;82.90;102963.66;7305369;19;19926;-69
2023/12/17 11:58:57;;;;;;;;;;;;;;;12.90;82.53;102963.75;7294838;19;20426;-70
2023/12/17 12:01:24;;;;;;;;;;;;;;;12.83;81.95;102962.56;7307608;19;20414;-69
2023/12/17 12:03:55;;;;;;;;;;;;;;;12.81;82.46;102959.16;7299252;19;20097;-69
2023/12/17 12:06:26;;;;;;;;;;;;;;;12.85;82.67;102952.69;7286711;19;19918;-71
2023/12/17 12:08:54;;;;;;;;;;;;;;;12.89;83.27;102948.03;7296287;19;20881;-69
2023/12/17 12:11:28;;;;;;;;;;;;;;;12.96;82.42;102941.31;7296980;19;19945;-68
2023/12/17 12:13:57;;;;;;;;;;;;;;;12.98;82.18;102939.41;7299092;19;19928;-70
2023/12/17 12:16:24;;;;;;;;;;;;;;;13.00;81.96;102935.72;7296247;19;20513;-69
2023/12/17 12:18:57;;;;;;;;;;;;;;;13.05;82.85;102945.94;7290081;19;19922;-70
2023/12/17 12:21:25;;;;;;;;;;;;;;;13.07;82.26;102930.78;7297703;19;19926;-70
2023/12/17 12:23:54;;;;;;;;;;;;;;;13.07;82.36;102938.72;7297074;19;20239;-70
2023/12/17 12:26:22;;;;;;;;;;;;;;;13.06;81.01;102937.03;7300587;19;19929;-69
2023/12/17 12:28:53;;;;;;;;;;;;;;;13.08;80.94;102930.69;7283603;19;19947;-69
2023/12/17 12:31:20;;;;;;;;;;;;;;;13.12;81.98;102939.22;7279152;19;19992;-70
2023/12/17 12:33:50;;;;;;;;;;;;;;;13.13;81.31;102936.47;7287846;19;19930;-69
2023/12/17 12:36:18;;;;;;;;;;;;;;;13.13;80.84;102928.56;7292833;19;19925;-71
2023/12/17 12:38:57;;;;;;;;;;;;;;;13.09;81.02;102921.78;7289101;19;19918;-69
2023/12/17 12:41:24;;;;;;;;;;;;;;;13.11;81.09;102926.94;7291915;19;19907;-69
2023/12/17 12:43:52;;;;;;;;;;;;;;;13.15;81.32;102912.59;7312857;19;19915;-68